createdAt,value
2019-03-06T00:01:44.666Z,6.70
2019-03-06T00:04:14.182Z,6.13
2019-03-06T00:06:43.671Z,8.43
2019-03-06T00:09:13.121Z,8.77
2019-03-06T00:11:42.599Z,7.17
2019-03-06T00:14:12.106Z,7.53
2019-03-06T00:16:41.619Z,8.20
2019-03-06T00:19:11.468Z,9.23
2019-03-06T00:21:40.974Z,7.87
2019-03-06T00:24:10.479Z,7.93
2019-03-06T00:26:40.028Z,7.20
2019-03-06T00:29:09.545Z,11.60
2019-03-06T00:31:39.162Z,9.37
2019-03-06T00:34:08.680Z,7.07
2019-03-06T00:36:38.292Z,8.37
2019-03-06T00:39:09.009Z,6.97
2019-03-06T00:41:43.910Z,6.30
2019-03-06T00:44:13.414Z,8.20
2019-03-06T00:46:42.889Z,7.73
2019-03-06T00:49:12.412Z,7.47
2019-03-06T00:51:41.862Z,8.03
2019-03-06T00:54:11.425Z,6.20
2019-03-06T00:56:40.924Z,8.17
2019-03-06T00:59:10.451Z,7.30
2019-03-06T01:01:39.965Z,5.13
2019-03-06T01:04:09.469Z,8.00
2019-03-06T01:06:38.990Z,5.23
2019-03-06T01:09:09.605Z,4.93
2019-03-06T01:11:39.151Z,4.63
2019-03-06T01:14:08.732Z,5.37
2019-03-06T01:16:38.226Z,6.43
2019-03-06T01:19:07.811Z,5.70
2019-03-06T01:21:37.330Z,6.70
2019-03-06T01:24:06.804Z,6.43
2019-03-06T01:26:36.306Z,7.50
2019-03-06T01:29:06.075Z,7.23
2019-03-06T01:31:35.753Z,6.53
2019-03-06T01:34:21.484Z,6.00
2019-03-06T01:37:22.249Z,8.10
2019-03-06T01:40:13.469Z,6.07
2019-03-06T01:42:56.343Z,6.57
2019-03-06T01:45:25.788Z,8.23
2019-03-06T01:47:55.256Z,6.97
2019-03-06T01:50:24.750Z,7.60
2019-03-06T01:52:54.223Z,7.03
2019-03-06T01:55:23.698Z,6.87
2019-03-06T01:57:53.167Z,7.43
2019-03-06T02:00:22.657Z,6.90
2019-03-06T02:02:52.461Z,6.50
2019-03-06T02:05:21.965Z,6.53
2019-03-06T02:07:51.424Z,6.00
2019-03-06T02:10:21.181Z,6.97
2019-03-06T02:12:50.667Z,5.13
2019-03-06T02:15:20.540Z,7.77
2019-03-06T02:17:50.039Z,6.77
2019-03-06T02:20:19.638Z,6.97
2019-03-06T02:22:49.122Z,6.20
2019-03-06T02:25:18.691Z,10.83
2019-03-06T02:27:48.187Z,7.80
2019-03-06T02:30:19.708Z,6.40
2019-03-06T02:32:49.185Z,6.23
2019-03-06T02:35:18.643Z,7.67
2019-03-06T02:37:48.120Z,6.30
2019-03-06T02:40:19.348Z,6.87
2019-03-06T02:42:48.806Z,7.77
2019-03-06T02:45:18.366Z,6.60
2019-03-06T02:47:47.865Z,6.27
2019-03-06T02:50:17.334Z,8.03
2019-03-06T02:52:46.833Z,8.23
2019-03-06T02:55:16.856Z,6.90
2019-03-06T02:57:55.567Z,6.83
2019-03-06T03:00:42.837Z,7.50
2019-03-06T03:03:30.832Z,7.17
2019-03-06T03:06:07.121Z,9.40
2019-03-06T03:08:37.192Z,10.50
2019-03-06T03:11:06.761Z,7.93
2019-03-06T03:13:36.240Z,9.37
2019-03-06T03:16:05.699Z,7.40
2019-03-06T03:18:35.183Z,6.67
2019-03-06T03:21:04.692Z,8.20
2019-03-06T03:23:34.144Z,7.90
2019-03-06T03:26:03.679Z,11.33
2019-03-06T03:28:33.124Z,7.90
2019-03-06T03:31:02.637Z,7.60
2019-03-06T03:33:32.087Z,8.83
2019-03-06T03:36:01.612Z,9.93
2019-03-06T03:38:31.097Z,11.70
2019-03-06T03:41:00.624Z,11.47
2019-03-06T03:43:30.082Z,10.97
2019-03-06T03:45:59.577Z,11.57
2019-03-06T03:48:29.082Z,10.60
2019-03-06T03:50:58.580Z,11.60
2019-03-06T03:53:28.071Z,15.93
2019-03-06T03:55:57.596Z,12.83
2019-03-06T03:58:27.071Z,11.50
2019-03-06T04:00:56.692Z,10.83
2019-03-06T04:03:26.315Z,10.87
2019-03-06T04:05:55.805Z,11.50
2019-03-06T04:08:25.285Z,11.60
2019-03-06T04:10:54.823Z,9.80
2019-03-06T04:13:24.343Z,10.43
2019-03-06T04:15:53.844Z,12.23
2019-03-06T04:18:23.372Z,11.37
2019-03-06T04:20:52.859Z,12.67
2019-03-06T04:23:22.463Z,10.67
2019-03-06T04:25:51.973Z,11.47
2019-03-06T04:28:21.476Z,11.90
2019-03-06T04:30:53.302Z,11.87
2019-03-06T04:33:22.833Z,12.97
2019-03-06T04:35:52.430Z,11.97
2019-03-06T04:38:21.907Z,11.57
2019-03-06T04:40:51.539Z,12.80
2019-03-06T04:43:21.044Z,9.03
2019-03-06T04:45:50.515Z,11.50
2019-03-06T04:48:20.022Z,9.43
2019-03-06T04:50:49.532Z,8.40
2019-03-06T04:53:19.103Z,9.70
2019-03-06T04:55:48.656Z,9.80
2019-03-06T04:58:18.158Z,10.93
2019-03-06T05:00:47.769Z,9.13
2019-03-06T05:03:17.308Z,10.50
2019-03-06T05:05:46.794Z,11.70
2019-03-06T05:08:16.290Z,11.77
2019-03-06T05:10:46.143Z,10.57
2019-03-06T05:13:15.995Z,14.03
2019-03-06T05:15:45.519Z,11.17
2019-03-06T05:18:46.489Z,10.50
2019-03-06T05:21:16.077Z,10.87
2019-03-06T05:23:45.567Z,11.07
2019-03-06T05:26:15.062Z,11.60
2019-03-06T05:28:44.565Z,12.83
2019-03-06T05:31:14.070Z,12.77
2019-03-06T05:33:43.585Z,11.63
2019-03-06T05:37:12.306Z,14.20
2019-03-06T05:39:41.835Z,13.03
2019-03-06T05:42:11.496Z,10.03
2019-03-06T05:44:41.382Z,13.07
2019-03-06T05:47:10.939Z,10.50
2019-03-06T05:49:40.444Z,12.63
2019-03-06T05:52:09.954Z,14.47
2019-03-06T05:54:39.613Z,11.87
2019-03-06T05:57:09.133Z,12.30
2019-03-06T05:59:38.704Z,11.53
2019-03-06T06:02:10.070Z,12.23
2019-03-06T06:04:39.603Z,12.03
2019-03-06T06:07:09.346Z,13.23
2019-03-06T06:09:38.944Z,13.37
2019-03-06T06:12:08.559Z,13.50
2019-03-06T06:14:38.118Z,11.97
2019-03-06T06:17:07.804Z,13.73
2019-03-06T06:19:37.501Z,12.13
2019-03-06T06:22:15.389Z,13.80
2019-03-06T06:24:46.843Z,14.00
2019-03-06T06:27:16.405Z,11.53
2019-03-06T06:29:46.129Z,14.80
2019-03-06T06:32:15.750Z,10.53
2019-03-06T06:34:45.416Z,10.53
2019-03-06T06:37:15.018Z,12.97
2019-03-06T06:39:44.659Z,13.73
2019-03-06T06:42:14.361Z,14.10
2019-03-06T06:44:43.863Z,12.13
2019-03-06T06:47:13.403Z,13.97
2019-03-06T06:49:42.917Z,14.77
2019-03-06T06:52:40.374Z,13.80
2019-03-06T06:55:49.829Z,12.90
2019-03-06T06:58:53.588Z,13.90
2019-03-06T07:02:09.062Z,13.27
2019-03-06T07:05:16.753Z,15.93
2019-03-06T07:08:03.972Z,13.27
2019-03-06T07:10:39.515Z,13.53
2019-03-06T07:13:17.395Z,15.07
2019-03-06T07:16:08.655Z,15.00
2019-03-06T07:19:15.282Z,14.73
2019-03-06T07:22:06.528Z,13.87
2019-03-06T07:25:01.245Z,12.77
2019-03-06T07:27:49.668Z,16.10
2019-03-06T07:30:34.406Z,15.87
2019-03-06T07:33:29.447Z,16.67
2019-03-06T07:36:24.267Z,16.17
2019-03-06T07:39:00.633Z,16.20
2019-03-06T07:41:50.191Z,16.10
2019-03-06T07:44:37.437Z,15.07
2019-03-06T07:47:25.989Z,19.90
2019-03-06T07:50:32.572Z,15.90
2019-03-06T07:54:12.548Z,16.43
2019-03-06T07:56:59.388Z,20.60
2019-03-06T07:59:29.000Z,19.30
2019-03-06T08:02:01.801Z,20.27
2019-03-06T08:04:31.459Z,24.90
2019-03-06T08:07:10.944Z,29.53
2019-03-06T08:09:40.450Z,31.53
2019-03-06T08:12:28.903Z,30.43
2019-03-06T08:15:21.151Z,32.53
2019-03-06T08:18:08.467Z,36.37
2019-03-06T08:20:50.531Z,38.80
2019-03-06T08:23:37.778Z,39.03
2019-03-06T08:26:07.337Z,36.43
2019-03-06T08:28:36.860Z,37.63
2019-03-06T08:31:24.182Z,36.60
2019-03-06T08:34:01.666Z,30.37
2019-03-06T08:36:31.212Z,36.57
2019-03-06T08:39:00.740Z,33.03
2019-03-06T08:41:30.313Z,31.47
2019-03-06T08:43:59.882Z,32.00
2019-03-06T08:46:48.341Z,27.73
2019-03-06T08:49:29.291Z,30.20
2019-03-06T08:52:16.465Z,29.90
2019-03-06T08:55:04.876Z,28.13
2019-03-06T08:57:52.452Z,28.83
2019-03-06T09:00:39.948Z,32.93
2019-03-06T09:03:46.658Z,28.23
2019-03-06T09:06:25.544Z,27.73
2019-03-06T09:09:14.030Z,25.90
2019-03-06T09:11:56.140Z,23.00
2019-03-06T09:14:42.407Z,25.40
2019-03-06T09:17:23.739Z,27.03
2019-03-06T09:20:04.674Z,24.33
2019-03-06T09:22:53.150Z,23.77
2019-03-06T09:25:32.768Z,24.90
2019-03-06T09:28:33.219Z,25.27
2019-03-06T09:31:17.167Z,23.73
2019-03-06T09:33:59.529Z,27.93
2019-03-06T09:36:45.081Z,28.20
2019-03-06T09:39:36.840Z,25.30
2019-03-06T09:42:19.029Z,33.50
2019-03-06T09:45:13.364Z,27.47
2019-03-06T09:48:07.279Z,22.30
2019-03-06T09:50:52.498Z,25.57
2019-03-06T09:53:35.117Z,23.27
2019-03-06T09:56:29.588Z,22.20
2019-03-06T09:59:04.852Z,23.67
2019-03-06T10:01:53.312Z,20.63
2019-03-06T10:04:32.417Z,20.83
2019-03-06T10:07:18.849Z,19.70
2019-03-06T10:10:13.122Z,18.83
2019-03-06T10:13:07.704Z,23.10
2019-03-06T10:15:44.018Z,16.67
2019-03-06T10:18:18.608Z,17.90
2019-03-06T10:20:48.089Z,24.13
2019-03-06T10:23:17.621Z,18.13
2019-03-06T10:25:47.153Z,12.43
2019-03-06T10:28:16.660Z,9.57
2019-03-06T10:30:46.172Z,12.17
2019-03-06T10:33:15.711Z,14.93
2019-03-06T10:35:45.434Z,9.03
2019-03-06T10:38:16.812Z,11.23
2019-03-06T10:40:46.211Z,7.70
2019-03-06T10:43:15.839Z,8.53
2019-03-06T10:45:45.342Z,7.30
2019-03-06T10:48:14.898Z,7.53
2019-03-06T10:50:44.413Z,10.27
2019-03-06T10:53:13.920Z,7.77
2019-03-06T10:55:43.470Z,7.17
2019-03-06T10:58:13.019Z,10.50
2019-03-06T11:00:52.354Z,7.47
2019-03-06T11:03:24.195Z,4.20
2019-03-06T11:05:53.850Z,8.70
2019-03-06T11:08:25.040Z,5.23
2019-03-06T11:10:54.947Z,9.90
2019-03-06T11:13:24.715Z,7.97
2019-03-06T11:15:55.900Z,8.87
2019-03-06T11:18:25.667Z,4.67
2019-03-06T11:20:55.252Z,6.87
2019-03-06T11:23:25.044Z,5.50
2019-03-06T11:25:54.540Z,5.20
2019-03-06T11:28:24.155Z,4.13
2019-03-06T11:30:55.687Z,4.50
2019-03-06T11:33:25.737Z,3.13
2019-03-06T11:35:56.678Z,4.87
2019-03-06T11:38:27.268Z,7.27
2019-03-06T11:40:57.171Z,5.00
2019-03-06T11:43:26.869Z,6.37
2019-03-06T11:45:56.541Z,5.07
2019-03-06T11:48:26.326Z,7.67
2019-03-06T11:50:55.853Z,3.90
2019-03-06T11:53:25.567Z,4.60
2019-03-06T11:55:55.196Z,4.17
2019-03-06T11:58:24.856Z,4.27
2019-03-06T12:00:54.767Z,2.70
2019-03-06T12:03:24.337Z,3.00
2019-03-06T12:05:54.254Z,5.30
2019-03-06T12:08:23.800Z,7.47
2019-03-06T12:10:53.673Z,4.80
2019-03-06T12:13:23.318Z,5.10
2019-03-06T12:15:53.279Z,4.53
2019-03-06T12:18:24.326Z,6.00
2019-03-06T12:20:54.514Z,4.60
2019-03-06T12:23:24.155Z,4.27
2019-03-06T12:25:53.688Z,5.03
2019-03-06T12:28:23.338Z,4.33
2019-03-06T12:30:52.830Z,4.13
2019-03-06T12:33:25.393Z,4.63
2019-03-06T12:35:55.130Z,3.10
2019-03-06T12:38:24.797Z,4.17
2019-03-06T12:40:54.274Z,6.70
2019-03-06T12:43:23.756Z,6.07
2019-03-06T12:46:27.581Z,5.67
2019-03-06T12:49:07.750Z,8.80
2019-03-06T12:51:39.148Z,4.30
2019-03-06T12:54:09.513Z,4.73
2019-03-06T12:56:39.154Z,4.30
2019-03-06T12:59:08.887Z,5.53
2019-03-06T13:01:39.271Z,4.13
2019-03-06T13:04:08.931Z,3.40
2019-03-06T13:06:38.473Z,4.13
2019-03-06T13:09:19.934Z,5.47
2019-03-06T13:11:49.423Z,4.40
2019-03-06T13:14:19.090Z,3.47
2019-03-06T13:16:49.026Z,8.17
2019-03-06T13:19:18.558Z,3.07
2019-03-06T13:21:48.134Z,5.60
2019-03-06T13:24:18.206Z,5.17
2019-03-06T13:26:47.741Z,2.90
2019-03-06T13:29:17.549Z,6.10
2019-03-06T13:31:47.075Z,4.00
2019-03-06T13:34:35.501Z,3.70
2019-03-06T13:37:05.079Z,4.20
2019-03-06T13:39:34.870Z,3.00
2019-03-06T13:42:04.578Z,6.37
2019-03-06T13:44:34.066Z,2.33
2019-03-06T13:47:03.617Z,4.57
2019-03-06T13:49:33.205Z,4.47
2019-03-06T13:52:02.728Z,3.07
2019-03-06T13:54:32.365Z,3.73
2019-03-06T13:57:01.919Z,4.10
2019-03-06T13:59:31.396Z,4.17
2019-03-06T14:02:00.948Z,6.13
2019-03-06T14:04:31.006Z,2.87
2019-03-06T14:07:03.432Z,3.50
2019-03-06T14:09:32.959Z,5.63
2019-03-06T14:12:04.024Z,7.87
2019-03-06T14:14:33.591Z,4.00
2019-03-06T14:17:03.511Z,3.43
2019-03-06T14:19:33.022Z,4.53
2019-03-06T14:22:02.802Z,4.33
2019-03-06T14:24:32.321Z,3.23
2019-03-06T14:27:01.837Z,3.83
2019-03-06T14:29:31.402Z,3.93
2019-03-06T14:32:00.911Z,2.87
2019-03-06T14:34:30.382Z,4.57
2019-03-06T14:37:00.120Z,5.47
2019-03-06T14:39:31.238Z,3.43
2019-03-06T14:42:01.510Z,4.13
2019-03-06T14:44:31.016Z,4.43
2019-03-06T14:47:00.555Z,6.23
2019-03-06T14:49:30.492Z,3.60
2019-03-06T14:52:07.085Z,3.37
2019-03-06T14:54:31.955Z,3.40
2019-03-06T14:57:01.491Z,2.97
2019-03-06T14:59:31.039Z,5.37
2019-03-06T15:02:00.555Z,5.30
2019-03-06T15:04:30.288Z,4.20
2019-03-06T15:07:00.091Z,2.90
2019-03-06T15:09:29.820Z,3.87
2019-03-06T15:11:59.618Z,6.60
2019-03-06T15:14:35.771Z,5.00
2019-03-06T15:17:00.598Z,3.83
2019-03-06T15:19:30.107Z,5.63
2019-03-06T15:21:59.575Z,2.83
2019-03-06T15:24:29.073Z,4.97
2019-03-06T15:26:58.574Z,4.60
2019-03-06T15:29:28.067Z,7.37
2019-03-06T15:31:57.844Z,4.83
2019-03-06T15:34:27.386Z,5.57
2019-03-06T15:36:56.868Z,4.53
2019-03-06T15:39:42.851Z,3.73
2019-03-06T15:42:08.059Z,5.63
2019-03-06T15:44:37.574Z,4.27
2019-03-06T15:47:07.379Z,5.07
2019-03-06T15:49:36.962Z,4.93
2019-03-06T15:52:11.054Z,4.73
2019-03-06T15:54:40.579Z,6.60
2019-03-06T15:57:10.323Z,3.60
2019-03-06T15:59:40.017Z,4.93
2019-03-06T16:02:09.758Z,4.07
2019-03-06T16:04:39.264Z,4.13
2019-03-06T16:07:08.786Z,5.73
2019-03-06T16:09:38.724Z,6.17
2019-03-06T16:12:08.350Z,4.93
2019-03-06T16:14:37.843Z,6.30
2019-03-06T16:17:07.541Z,6.13
2019-03-06T16:19:37.054Z,8.77
2019-03-06T16:22:06.858Z,9.33
2019-03-06T16:24:37.666Z,10.30
2019-03-06T16:27:07.332Z,12.10
2019-03-06T16:29:36.852Z,11.90
2019-03-06T16:32:06.569Z,13.77
2019-03-06T16:34:36.118Z,11.20
2019-03-06T16:37:06.203Z,10.90
2019-03-06T16:39:35.706Z,14.77
2019-03-06T16:42:05.423Z,14.27
2019-03-06T16:44:35.014Z,13.00
2019-03-06T16:47:06.960Z,11.77
2019-03-06T16:49:36.091Z,13.67
2019-03-06T16:52:05.693Z,12.77
2019-03-06T16:54:35.224Z,11.60
2019-03-06T16:57:04.727Z,13.90
2019-03-06T16:59:34.254Z,16.80
2019-03-06T17:02:03.940Z,26.93
2019-03-06T17:04:33.732Z,16.10
2019-03-06T17:07:03.225Z,17.07
2019-03-06T17:09:32.954Z,13.53
2019-03-06T17:12:02.642Z,13.83
2019-03-06T17:14:32.159Z,14.83
2019-03-06T17:17:01.711Z,16.57
2019-03-06T17:19:31.275Z,21.07
2019-03-06T17:22:00.783Z,13.27
2019-03-06T17:24:30.347Z,13.00
2019-03-06T17:26:59.989Z,23.57
2019-03-06T17:29:29.489Z,21.57
2019-03-06T17:31:59.196Z,14.53
2019-03-06T17:34:30.750Z,20.67
2019-03-06T17:37:01.339Z,17.73
2019-03-06T17:39:30.956Z,13.53
2019-03-06T17:42:00.448Z,16.63
2019-03-06T17:44:30.010Z,17.43
2019-03-06T17:46:59.670Z,15.60
2019-03-06T17:49:29.248Z,19.73
2019-03-06T17:51:58.810Z,19.37
2019-03-06T17:54:28.471Z,17.70
2019-03-06T17:56:58.094Z,18.00
2019-03-06T17:59:27.880Z,21.87
2019-03-06T18:01:57.419Z,16.03
2019-03-06T18:04:28.164Z,19.77
2019-03-06T18:06:57.651Z,12.30
2019-03-06T18:09:27.682Z,12.23
2019-03-06T18:11:57.213Z,11.97
2019-03-06T18:14:26.860Z,13.13
2019-03-06T18:16:56.385Z,14.20
2019-03-06T18:19:25.884Z,15.03
2019-03-06T18:21:55.353Z,12.47
2019-03-06T18:24:24.855Z,18.07
2019-03-06T18:26:54.736Z,15.37
2019-03-06T18:29:24.300Z,16.37
2019-03-06T18:31:53.832Z,14.97
2019-03-06T18:34:23.352Z,21.03
2019-03-06T18:36:52.819Z,16.47
2019-03-06T18:39:22.514Z,20.57
2019-03-06T18:41:52.799Z,19.70
2019-03-06T18:44:22.365Z,21.90
2019-03-06T18:46:52.014Z,16.27
2019-03-06T18:49:21.544Z,17.43
2019-03-06T18:51:51.010Z,22.27
2019-03-06T18:54:20.531Z,24.13
2019-03-06T18:56:50.342Z,24.90
2019-03-06T18:59:19.835Z,17.53
2019-03-06T19:01:49.415Z,24.10
2019-03-06T19:04:18.987Z,20.07
2019-03-06T19:06:48.511Z,19.73
2019-03-06T19:09:19.724Z,18.30
2019-03-06T19:11:49.552Z,17.13
2019-03-06T19:14:19.052Z,18.33
2019-03-06T19:16:48.534Z,20.73
2019-03-06T19:19:18.046Z,17.90
2019-03-06T19:21:47.642Z,16.93
2019-03-06T19:24:17.203Z,17.90
2019-03-06T19:26:46.698Z,14.50
2019-03-06T19:29:16.350Z,21.87
2019-03-06T19:31:45.825Z,22.57
2019-03-06T19:34:15.400Z,22.13
2019-03-06T19:36:44.926Z,22.30
2019-03-06T19:39:17.523Z,21.43
2019-03-06T19:41:47.068Z,25.70
2019-03-06T19:44:16.614Z,20.40
2019-03-06T19:46:46.212Z,23.63
2019-03-06T19:49:15.875Z,31.23
2019-03-06T19:51:51.441Z,22.97
2019-03-06T19:54:16.642Z,29.87
2019-03-06T19:56:46.186Z,31.00
2019-03-06T19:59:15.667Z,33.77
2019-03-06T20:01:45.232Z,30.00
2019-03-06T20:04:14.740Z,37.93
2019-03-06T20:06:45.633Z,38.40
2019-03-06T20:09:26.118Z,38.50
2019-03-06T20:11:55.623Z,40.17
2019-03-06T20:14:25.177Z,41.87
2019-03-06T20:16:54.691Z,33.17
2019-03-06T20:19:24.633Z,29.87
2019-03-06T20:21:54.365Z,24.53
2019-03-06T20:24:23.919Z,26.00
2019-03-06T20:26:53.734Z,27.47
2019-03-06T20:29:23.238Z,21.37
2019-03-06T20:31:52.818Z,25.43
2019-03-06T20:34:22.325Z,27.03
2019-03-06T20:36:52.001Z,22.57
2019-03-06T20:39:21.507Z,27.20
2019-03-06T20:41:51.085Z,30.53
2019-03-06T20:44:21.051Z,25.53
2019-03-06T20:46:50.532Z,25.43
2019-03-06T20:49:20.069Z,27.93
2019-03-06T20:51:49.713Z,28.30
2019-03-06T20:54:19.306Z,34.60
2019-03-06T20:56:48.871Z,29.60
2019-03-06T20:59:18.361Z,31.90
2019-03-06T21:01:47.874Z,32.23
2019-03-06T21:04:17.361Z,30.97
2019-03-06T21:06:47.175Z,32.10
2019-03-06T21:09:17.162Z,28.87
2019-03-06T21:11:46.990Z,30.90
2019-03-06T21:14:16.532Z,38.40
2019-03-06T21:16:46.019Z,34.27
2019-03-06T21:19:15.546Z,39.03
2019-03-06T21:21:45.054Z,38.10
2019-03-06T21:24:14.570Z,31.10
2019-03-06T21:26:44.292Z,36.67
2019-03-06T21:29:13.782Z,51.00
2019-03-06T21:31:43.288Z,60.07
2019-03-06T21:34:12.744Z,54.67
2019-03-06T21:36:42.250Z,54.30
2019-03-06T21:39:22.799Z,61.90
2019-03-06T21:41:52.316Z,58.47
2019-03-06T21:44:21.821Z,64.43
2019-03-06T21:46:51.341Z,62.67
2019-03-06T21:49:20.886Z,55.47
2019-03-06T21:51:50.523Z,51.50
2019-03-06T21:54:20.367Z,47.27
2019-03-06T21:56:49.870Z,43.07
2019-03-06T21:59:19.375Z,47.53
2019-03-06T22:01:48.922Z,43.90
2019-03-06T22:04:18.433Z,46.57
2019-03-06T22:06:47.895Z,46.77
2019-03-06T22:09:17.592Z,43.73
2019-03-06T22:11:47.449Z,37.63
2019-03-06T22:14:16.909Z,35.87
2019-03-06T22:16:46.400Z,36.07
2019-03-06T22:19:15.891Z,43.20
2019-03-06T22:21:45.427Z,38.23
2019-03-06T22:24:14.916Z,40.07
2019-03-06T22:26:44.432Z,39.07
2019-03-06T22:29:13.899Z,37.07
2019-03-06T22:31:43.408Z,40.10
2019-03-06T22:34:12.931Z,26.80
2019-03-06T22:36:42.405Z,29.57
2019-03-06T22:39:12.084Z,29.73
2019-03-06T22:41:41.580Z,33.30
2019-03-06T22:44:11.075Z,25.40
2019-03-06T22:46:40.596Z,26.50
2019-03-06T22:49:10.256Z,31.30
2019-03-06T22:51:39.840Z,52.80
2019-03-06T22:54:09.330Z,23.63
2019-03-06T22:56:38.854Z,31.20
2019-03-06T22:59:08.339Z,33.17
2019-03-06T23:01:39.712Z,29.07
2019-03-06T23:04:09.375Z,26.57
2019-03-06T23:06:38.874Z,29.83
2019-03-06T23:09:12.250Z,23.17
2019-03-06T23:11:42.228Z,28.20
2019-03-06T23:14:11.722Z,23.83
2019-03-06T23:16:41.268Z,28.17
2019-03-06T23:19:13.835Z,30.20
2019-03-06T23:21:43.360Z,26.27
2019-03-06T23:24:12.896Z,29.97
2019-03-06T23:26:43.227Z,25.30
2019-03-06T23:29:12.884Z,33.40
2019-03-06T23:31:42.541Z,24.37
2019-03-06T23:34:12.139Z,31.10
2019-03-06T23:36:41.654Z,38.63
2019-03-06T23:39:14.379Z,21.57
2019-03-06T23:41:43.938Z,23.97
2019-03-06T23:44:15.183Z,31.17
2019-03-06T23:46:44.711Z,38.87
2019-03-06T23:49:14.176Z,32.63
2019-03-06T23:51:48.821Z,25.67
2019-03-06T23:54:19.462Z,34.50
2019-03-06T23:56:49.167Z,32.47
2019-03-06T23:59:18.640Z,33.87
